Time;durP1;ratioP1;P1;durP2;ratioP2;P2;SDS_P1;SDS_P2;PMS_P1;PMS_P2;Temp;Humidity;BMP_temperature;BMP_pressure;BME280_temperature;BME280_humidity;BME280_pressure;Samples;Min_cycle;Max_cycle;Signal;HPM_P1;HPM_P2
2021/08/04 00:03:05;;;;;;;3.00;1.67;;;;;;;14.44;75.53;101525.84;5001808;28;20504;-79
2021/08/04 00:05:53;;;;;;;;;;;;;;;;;;;;;
2021/08/04 00:08:22;;;;;;;2.37;1.80;;;;;;;13.93;75.64;101433.91;4992633;28;20517;-77
2021/08/04 00:10:53;;;;;;;1.87;1.77;;;;;;;14.53;75.32;101536.50;5003153;28;20440;-78
2021/08/04 00:13:25;;;;;;;1.83;1.73;;;;;;;14.54;75.56;101536.25;4995823;28;20433;-79
2021/08/04 00:15:51;;;;;;;1.73;1.43;;;;;;;14.23;75.40;101466.69;4994317;28;20443;-79
2021/08/04 00:18:22;;;;;;;3.13;1.60;;;;;;;13.89;77.25;101465.03;5002273;28;20992;-79
2021/08/04 00:20:48;;;;;;;1.60;1.50;;;;;;;14.37;76.05;101494.50;4995943;28;20472;-79
2021/08/04 00:23:46;;;;;;;3.07;2.80;;;;;;;14.63;75.52;101513.41;4999906;28;20469;-78
2021/08/04 00:26:26;;;;;;;2.00;1.80;;;;;;;14.33;77.15;101517.56;4997872;28;20808;-79
2021/08/04 00:29:09;;;;;;;2.20;2.00;;;;;;;13.95;77.31;101462.31;4997550;28;20495;-79
2021/08/04 00:31:45;;;;;;;2.43;1.80;;;;;;;14.53;76.13;101514.91;5012503;28;20519;-78
2021/08/04 00:34:11;;;;;;;2.50;1.70;;;;;;;14.00;75.57;101423.94;4993204;28;20433;-78
2021/08/04 00:36:37;;;;;;;1.60;1.50;;;;;;;13.63;75.72;101399.25;4994139;28;20433;-78
2021/08/04 00:39:06;;;;;;;1.80;1.70;;;;;;;14.16;75.42;101433.50;4998105;28;20217;-78
2021/08/04 00:41:44;;;;;;;1.93;1.53;;;;;;;14.25;74.70;101430.38;4993809;28;20209;-80
2021/08/04 00:44:15;;;;;;;1.63;1.53;;;;;;;14.51;74.76;101492.63;4996787;28;20468;-78
2021/08/04 00:46:43;;;;;;;2.57;2.30;;;;;;;14.27;75.10;101480.59;4998422;28;20442;-78
2021/08/04 00:49:18;;;;;;;2.83;2.10;;;;;;;14.44;75.40;101516.94;4994644;28;20922;-78
2021/08/04 00:55:01;;;;;;;2.17;1.83;;;;;;;14.38;75.36;101510.50;5000092;28;20528;-78
2021/08/04 00:57:27;;;;;;;2.70;2.50;;;;;;;13.78;75.16;101407.13;5006396;28;21024;-78
2021/08/04 01:00:04;;;;;;;2.90;2.60;;;;;;;14.12;75.55;101497.81;5011458;28;20433;-78
2021/08/04 01:02:45;;;;;;;2.00;1.90;;;;;;;13.78;76.14;101512.28;4995800;28;20201;-78
2021/08/04 01:05:25;;;;;;;1.77;1.67;;;;;;;13.79;75.57;101447.34;4994427;28;20433;-78
2021/08/04 01:08:07;;;;;;;2.20;2.00;;;;;;;14.28;75.73;101520.03;5010792;28;20434;-78
2021/08/04 01:10:41;;;;;;;2.20;1.67;;;;;;;13.77;75.10;101427.88;4996658;28;20456;-81
2021/08/04 01:13:20;;;;;;;3.60;2.10;;;;;;;14.00;76.43;101489.50;4994423;28;20962;-78
2021/08/04 01:16:20;;;;;;;;;;;;;;;;;;;;;
2021/08/04 01:19:15;;;;;;;2.03;1.83;;;;;;;13.43;76.50;101422.63;4993382;28;20538;-78
2021/08/04 01:22:18;;;;;;;2.53;2.33;;;;;;;13.96;76.96;101525.19;4995303;28;20496;-78
2021/08/04 01:24:56;;;;;;;2.20;1.80;;;;;;;13.30;77.24;101448.47;4993392;28;20436;-78
2021/08/04 01:27:24;;;;;;;2.10;2.00;;;;;;;13.52;76.30;101426.78;4995752;28;20440;-78
2021/08/04 01:30:01;;;;;;;2.67;2.10;;;;;;;13.34;76.04;101416.59;4994039;28;20437;-78
2021/08/04 01:32:28;;;;;;;2.00;1.90;;;;;;;13.31;75.83;101425.91;4995427;28;20429;-78
2021/08/04 01:34:57;;;;;;;2.60;2.40;;;;;;;13.43;75.84;101452.28;5008498;28;20505;-78
2021/08/04 01:37:27;;;;;;;2.27;2.10;;;;;;;13.26;76.30;101433.75;4994228;28;20425;-78
2021/08/04 01:40:03;;;;;;;3.17;2.13;;;;;;;13.58;76.24;101479.88;4993200;28;20518;-78
2021/08/04 01:42:34;;;;;;;2.50;2.30;;;;;;;14.01;76.64;101530.81;5000087;28;20463;-78
2021/08/04 01:45:04;;;;;;;4.83;2.77;;;;;;;13.74;77.10;101497.53;5012848;28;20455;-81
2021/08/04 01:47:51;;;;;;;2.90;2.60;;;;;;;13.88;76.37;101503.78;5000141;28;20444;-80
2021/08/04 01:50:37;;;;;;;3.03;2.73;;;;;;;13.14;76.37;101392.25;4995479;28;20519;-78
2021/08/04 01:53:09;;;;;;;2.37;2.13;;;;;;;13.08;76.32;101420.81;4997506;28;20977;-77
2021/08/04 01:55:37;;;;;;;2.30;2.10;;;;;;;13.14;76.59;101431.81;4995251;28;20480;-79
2021/08/04 01:58:03;;;;;;;2.07;1.97;;;;;;;13.28;76.85;101455.13;4995314;28;20443;-78
2021/08/04 02:00:29;;;;;;;2.83;2.60;;;;;;;13.41;76.49;101465.09;5007797;28;20465;-82
2021/08/04 02:02:54;;;;;;;2.77;2.10;;;;;;;13.65;75.99;101488.81;4995909;28;20249;-80
2021/08/04 02:05:20;;;;;;;2.60;2.40;;;;;;;13.79;76.67;101538.19;4995353;28;20186;-78
2021/08/04 02:08:23;;;;;;;3.13;2.13;;;;;;;13.63;76.56;101525.09;4996410;28;20182;-78
2021/08/04 02:11:18;;;;;;;2.57;2.37;;;;;;;13.51;77.89;101524.81;4993612;28;20238;-79
2021/08/04 02:13:45;;;;;;;2.10;2.00;;;;;;;13.93;76.12;101530.97;5007850;28;20432;-80
2021/08/04 02:16:33;;;;;;;2.50;1.83;;;;;;;13.84;76.64;101526.81;4992689;28;20444;-79
2021/08/04 02:19:15;;;;;;;2.30;2.10;;;;;;;13.63;77.32;101528.63;4996244;28;20468;-79
2021/08/04 02:21:46;;;;;;;2.53;2.20;;;;;;;13.83;76.98;101530.53;4993486;28;20525;-79
2021/08/04 02:24:15;;;;;;;4.13;3.73;;;;;;;13.25;77.60;101468.94;5003540;28;20440;-77
2021/08/04 02:26:42;;;;;;;3.53;2.27;;;;;;;13.14;76.61;101440.72;5010326;28;20429;-79
2021/08/04 02:29:56;;;;;;;3.07;2.87;;;;;;;13.70;77.00;101526.78;4993090;28;20429;-80
2021/08/04 02:32:04;;;;;;;3.17;2.60;;;;;;;13.73;76.59;101531.75;4995702;28;20430;-79
2021/08/04 02:34:30;;;;;;;4.80;2.23;;;;;;;13.44;76.99;101494.34;5008425;28;20452;-79
2021/08/04 02:36:56;;;;;;;2.73;2.53;;;;;;;13.05;76.60;101413.16;4998536;28;20446;-79
2021/08/04 02:39:22;;;;;;;3.17;2.57;;;;;;;12.94;77.76;101478.34;4994073;28;20966;-79
2021/08/04 02:41:48;;;;;;;2.23;2.13;;;;;;;12.73;77.63;101444.25;4993625;28;20303;-79
2021/08/04 02:44:23;;;;;;;2.17;2.00;;;;;;;13.26;76.71;101509.19;4995784;28;20441;-80
2021/08/04 02:46:52;;;;;;;2.20;2.10;;;;;;;12.95;76.29;101463.84;4993857;28;20436;-79
2021/08/04 02:49:18;;;;;;;2.70;2.30;;;;;;;13.20;76.76;101503.75;5003342;28;20443;-79
2021/08/04 02:51:54;;;;;;;2.70;2.50;;;;;;;12.97;76.82;101479.81;5008329;28;20560;-79
2021/08/04 02:54:23;;;;;;;2.40;2.20;;;;;;;12.79;76.98;101416.53;5008798;28;20455;-81
2021/08/04 02:57:27;;;;;;;2.33;2.13;;;;;;;12.44;76.72;101381.56;5009786;28;20494;-79
2021/08/04 02:59:53;;;;;;;2.67;2.30;;;;;;;12.88;76.10;101436.88;4992707;28;20437;-79
2021/08/04 03:02:19;;;;;;;2.30;2.20;;;;;;;13.49;75.88;101525.03;5010876;28;20465;-80
2021/08/04 03:04:44;;;;;;;3.33;2.57;;;;;;;12.91;76.01;101437.53;5009175;28;20169;-79
2021/08/04 03:07:10;;;;;;;2.17;1.97;;;;;;;13.34;77.00;101537.84;4993706;28;20601;-80
2021/08/04 03:09:39;;;;;;;2.77;2.53;;;;;;;12.78;77.04;101433.72;4993488;28;20189;-78
2021/08/04 03:12:12;;;;;;;2.47;2.13;;;;;;;12.79;76.95;101445.34;4994397;28;20193;-78
2021/08/04 03:14:38;;;;;;;3.20;2.33;;;;;;;12.96;76.97;101462.81;4998142;28;20867;-78
2021/08/04 03:17:04;;;;;;;2.80;2.60;;;;;;;13.27;77.24;101527.00;4997408;28;20509;-78
2021/08/04 03:19:32;;;;;;;4.90;3.03;;;;;;;12.84;76.99;101440.16;5011999;28;20192;-78
2021/08/04 03:21:58;;;;;;;3.43;3.13;;;;;;;12.84;76.85;101449.09;4993436;28;20201;-78
2021/08/04 03:24:23;;;;;;;3.60;3.30;;;;;;;13.03;77.50;101497.84;5001302;28;20451;-78
2021/08/04 03:26:49;;;;;;;3.43;3.13;;;;;;;12.56;76.96;101405.25;4997481;28;20210;-78
2021/08/04 03:29:15;;;;;;;3.77;3.37;;;;;;;12.62;77.19;101426.78;4999906;28;20186;-79
2021/08/04 03:31:43;;;;;;;3.53;3.23;;;;;;;13.01;77.08;101492.66;5007947;28;20235;-78
2021/08/04 03:34:08;;;;;;;2.57;2.43;;;;;;;12.84;76.42;101440.16;4994879;28;20205;-78
2021/08/04 03:36:34;;;;;;;2.83;2.63;;;;;;;12.94;76.77;101464.88;4993034;28;20464;-78
2021/08/04 03:38:59;;;;;;;2.53;2.37;;;;;;;12.59;76.75;101397.59;5000173;28;20218;-78
2021/08/04 03:41:31;;;;;;;2.60;2.40;;;;;;;13.26;77.62;101541.53;5007510;28;20265;-80
2021/08/04 03:43:56;;;;;;;2.70;2.50;;;;;;;12.67;77.14;101410.06;4995931;28;20194;-78
2021/08/04 03:46:22;;;;;;;5.83;2.00;;;;;;;12.96;77.28;101464.66;4993594;28;20459;-78
2021/08/04 03:48:47;;;;;;;2.33;2.13;;;;;;;12.50;77.13;101368.34;4994359;28;20463;-78
2021/08/04 03:51:16;;;;;;;3.90;3.60;;;;;;;13.18;77.48;101463.53;4992816;28;20202;-79
2021/08/04 03:53:41;;;;;;;3.27;3.07;;;;;;;12.79;77.42;101392.31;4996653;28;20240;-79
2021/08/04 03:56:12;;;;;;;4.33;3.97;;;;;;;13.16;78.32;101470.97;5010784;28;22194;-79
2021/08/04 03:58:38;;;;;;;3.83;3.40;;;;;;;13.29;77.81;101457.59;4996659;28;20186;-78
2021/08/04 04:01:03;;;;;;;3.10;2.83;;;;;;;13.62;77.96;101523.41;4995951;28;20476;-78
2021/08/04 04:03:30;;;;;;;5.40;4.93;;;;;;;13.47;78.27;101532.50;5010111;28;20189;-78
2021/08/04 04:05:56;;;;;;;4.60;4.23;;;;;;;12.81;78.64;101438.69;4996585;28;20197;-78
2021/08/04 04:08:23;;;;;;;4.80;4.50;;;;;;;13.24;78.22;101519.28;4997297;28;20436;-78
2021/08/04 04:10:48;;;;;;;5.80;5.37;;;;;;;12.66;78.33;101446.88;4996246;28;20547;-78
2021/08/04 04:13:14;;;;;;;3.33;3.07;;;;;;;12.90;77.96;101436.66;4998386;28;20457;-78
2021/08/04 04:15:39;;;;;;;4.50;4.03;;;;;;;13.18;77.91;101466.22;5009287;28;20249;-78
2021/08/04 04:18:05;;;;;;;7.53;6.60;;;;;;;13.19;77.29;101464.34;5012818;28;20276;-78
2021/08/04 04:20:31;;;;;;;4.50;4.00;;;;;;;13.18;77.91;101470.78;4997505;28;20253;-79
2021/08/04 04:22:59;;;;;;;7.37;6.87;;;;;;;12.67;78.50;101415.44;4994424;28;20185;-78
2021/08/04 04:25:25;;;;;;;3.30;3.00;;;;;;;12.86;78.61;101449.69;4995677;28;20436;-78
2021/08/04 04:27:53;;;;;;;6.67;5.77;;;;;;;12.90;77.97;101452.81;5010027;28;20500;-80
2021/08/04 04:30:19;;;;;;;5.60;5.17;;;;;;;13.34;78.63;101546.75;4995553;28;20273;-78
2021/08/04 04:32:44;;;;;;;6.40;5.93;;;;;;;13.41;78.12;101527.91;4995021;28;20467;-78
2021/08/04 04:35:10;;;;;;;18.67;16.77;;;;;;;12.88;79.15;101495.28;5011183;28;20186;-78
2021/08/04 04:37:36;;;;;;;9.17;8.37;;;;;;;12.73;77.89;101403.03;4995523;28;20241;-79
2021/08/04 04:40:01;;;;;;;15.57;11.40;;;;;;;13.32;77.40;101489.53;4996434;28;20465;-78
2021/08/04 04:42:27;;;;;;;12.23;11.00;;;;;;;12.99;77.87;101454.34;4996249;28;20212;-79
2021/08/04 04:44:53;;;;;;;7.90;6.60;;;;;;;13.03;78.13;101463.66;4994956;28;20248;-80
2021/08/04 04:47:18;;;;;;;6.47;5.87;;;;;;;13.33;77.68;101506.50;4993685;28;20189;-78
2021/08/04 04:49:44;;;;;;;9.33;8.03;;;;;;;13.42;78.35;101534.13;4995078;28;20178;-79
2021/08/04 04:52:09;;;;;;;10.83;9.10;;;;;;;13.36;78.37;101481.03;4994827;28;20201;-78
2021/08/04 04:54:44;;;;;;;5.00;4.63;;;;;;;13.29;78.54;101467.56;5001809;28;20190;-78
2021/08/04 04:57:12;;;;;;;18.17;16.27;;;;;;;13.70;77.86;101536.72;4993766;28;20186;-79
2021/08/04 04:59:40;;;;;;;8.57;6.73;;;;;;;13.66;78.22;101528.22;4994192;28;20438;-78
2021/08/04 05:02:06;;;;;;;15.67;12.97;;;;;;;13.11;77.53;101415.03;4995307;28;20466;-78
2021/08/04 05:04:31;;;;;;;58.27;37.50;;;;;;;13.84;78.42;101527.66;4993400;28;20437;-78
2021/08/04 05:06:57;;;;;;;14.03;12.70;;;;;;;13.78;79.28;101537.38;4997368;28;20177;-78
2021/08/04 05:09:25;;;;;;;93.13;59.50;;;;;;;13.70;79.33;101517.84;4993158;28;20221;-78
2021/08/04 05:11:51;;;;;;;52.53;39.57;;;;;;;13.54;78.75;101487.53;4991815;28;20202;-78
2021/08/04 05:14:17;;;;;;;97.47;68.13;;;;;;;13.74;78.97;101517.25;4995166;28;20783;-78
2021/08/04 05:17:02;;;;;;;115.77;82.97;;;;;;;13.97;78.47;101559.19;4989723;28;20209;-78
2021/08/04 05:19:28;;;;;;;97.43;62.30;;;;;;;13.95;78.64;101558.59;4989059;28;20193;-78
2021/08/04 05:21:59;;;;;;;41.00;33.43;;;;;;;14.07;78.55;101580.41;4993031;28;20531;-78
2021/08/04 05:24:41;;;;;;;40.53;30.37;;;;;;;13.64;78.83;101499.81;4995415;28;20752;-78
2021/08/04 05:27:10;;;;;;;57.20;43.87;;;;;;;13.82;78.66;101512.69;5008410;28;20446;-79
2021/08/04 05:29:38;;;;;;;123.37;86.13;;;;;;;14.08;79.30;101577.50;4996942;28;20468;-79
2021/08/04 05:32:07;;;;;;;156.10;101.70;;;;;;;14.23;79.03;101580.88;4994364;28;20424;-78
2021/08/04 05:34:46;;;;;;;;;;;;;;;;;;;;;
2021/08/04 05:37:18;;;;;;;159.77;104.87;;;;;;;13.87;80.30;101567.69;4993932;28;20537;-78
2021/08/04 05:39:44;;;;;;;131.60;95.10;;;;;;;14.32;79.23;101589.59;4997294;28;21001;-78
2021/08/04 05:42:11;;;;;;;102.17;62.80;;;;;;;14.16;79.33;101589.97;4994893;28;20591;-78
2021/08/04 05:44:37;;;;;;;190.23;129.80;;;;;;;13.85;78.78;101515.81;4992621;28;20977;-78
2021/08/04 05:47:03;;;;;;;188.70;120.83;;;;;;;13.82;78.99;101494.66;4993442;28;20445;-79
2021/08/04 05:49:28;;;;;;;187.77;134.70;;;;;;;14.44;78.65;101589.81;4994768;28;20193;-78
2021/08/04 05:51:57;;;;;;;177.37;128.33;;;;;;;14.27;79.33;101585.84;4995911;28;20413;-78
2021/08/04 05:54:23;;;;;;;127.03;89.43;;;;;;;14.35;78.65;101583.78;4994700;28;20281;-79
2021/08/04 05:56:51;;;;;;;238.93;166.63;;;;;;;14.22;79.27;101570.25;4996138;28;20487;-77
2021/08/04 05:59:16;;;;;;;143.97;99.47;;;;;;;14.10;78.89;101537.66;4996325;28;20443;-77
2021/08/04 06:01:42;;;;;;;128.30;89.30;;;;;;;13.15;78.43;101366.13;4995960;28;20469;-78
2021/08/04 06:04:08;;;;;;;137.40;88.97;;;;;;;14.52;78.42;101596.91;4995683;28;20197;-78
2021/08/04 06:06:36;;;;;;;136.93;87.10;;;;;;;14.13;78.30;101531.84;4994792;28;20185;-80
2021/08/04 06:09:06;;;;;;;73.17;50.37;;;;;;;14.34;78.26;101560.50;5006236;28;20817;-77
2021/08/04 06:11:32;;;;;;;117.90;76.40;;;;;;;14.49;77.83;101544.13;4994703;28;20453;-78
2021/08/04 06:13:57;;;;;;;135.83;82.23;;;;;;;14.88;77.62;101589.22;4995050;28;20521;-78
2021/08/04 06:16:23;;;;;;;127.60;81.77;;;;;;;14.18;78.13;101456.53;4993276;28;20189;-77
2021/08/04 06:18:48;;;;;;;136.03;88.50;;;;;;;15.15;77.27;101581.06;4994138;28;20189;-79
2021/08/04 06:21:14;;;;;;;156.93;101.93;;;;;;;15.33;76.66;101578.56;4993257;28;20210;-79
2021/08/04 06:23:40;;;;;;;203.70;126.90;;;;;;;15.20;78.25;101580.44;4993177;28;20198;-79
2021/08/04 06:26:05;;;;;;;204.87;124.73;;;;;;;14.82;77.98;101509.03;5010630;28;20666;-78
2021/08/04 06:28:31;;;;;;;160.13;102.67;;;;;;;14.80;78.23;101483.28;4994988;28;20186;-79
2021/08/04 06:30:56;;;;;;;275.30;158.37;;;;;;;15.09;78.79;101536.81;4994347;28;20202;-79
2021/08/04 06:33:22;;;;;;;161.43;105.77;;;;;;;14.59;78.32;101441.16;4994403;28;20675;-78
2021/08/04 06:35:47;;;;;;;194.20;122.53;;;;;;;15.52;78.50;101586.81;4992789;28;20212;-78
2021/08/04 06:38:13;;;;;;;243.07;140.37;;;;;;;14.20;78.19;101367.28;4993015;28;20617;-80
2021/08/04 06:40:41;;;;;;;252.40;150.40;;;;;;;15.21;78.26;101533.47;4991723;28;20213;-79
2021/08/04 06:43:07;;;;;;;257.90;165.40;;;;;;;15.57;78.35;101589.69;4995522;28;20190;-79
2021/08/04 06:45:32;;;;;;;267.00;158.60;;;;;;;15.75;78.25;101595.28;4993480;28;20435;-78
2021/08/04 06:47:58;;;;;;;208.90;131.80;;;;;;;15.37;77.83;101533.00;4991773;28;20197;-80
2021/08/04 06:50:26;;;;;;;276.13;180.67;;;;;;;14.77;77.35;101402.69;4991829;28;20202;-79
2021/08/04 06:52:54;;;;;;;216.97;133.77;;;;;;;15.93;77.38;101583.72;4992429;28;20614;-78
2021/08/04 06:55:20;;;;;;;187.43;117.13;;;;;;;15.98;77.30;101578.50;4991558;28;20718;-78
2021/08/04 06:57:45;;;;;;;258.77;151.80;;;;;;;15.34;77.29;101474.78;4993791;28;20464;-78
2021/08/04 07:00:12;;;;;;;147.13;91.30;;;;;;;15.82;77.12;101542.00;4994645;28;20209;-79
2021/08/04 07:02:37;;;;;;;181.50;110.20;;;;;;;16.04;76.86;101571.41;4993434;28;20244;-79
2021/08/04 07:05:03;;;;;;;200.53;126.37;;;;;;;16.18;76.26;101583.00;5004219;28;20441;-77
2021/08/04 07:07:29;;;;;;;197.70;126.33;;;;;;;15.90;76.14;101532.75;5007590;28;20185;-78
2021/08/04 07:09:54;;;;;;;100.43;60.37;;;;;;;16.09;76.04;101574.28;4993688;28;20472;-80
2021/08/04 07:12:20;;;;;;;195.17;126.53;;;;;;;16.09;75.46;101562.66;4994084;28;20178;-80
2021/08/04 07:14:45;;;;;;;142.53;91.33;;;;;;;15.73;75.87;101504.56;4996174;28;20190;-80
2021/08/04 07:17:11;;;;;;;137.70;88.13;;;;;;;16.08;75.19;101550.13;4993022;28;20624;-78
2021/08/04 07:19:37;;;;;;;162.77;100.53;;;;;;;15.86;74.93;101492.84;5010503;28;20201;-79
2021/08/04 07:22:02;;;;;;;107.30;68.83;;;;;;;16.47;75.17;101605.91;4991251;28;20594;-79
2021/08/04 07:24:31;;;;;;;136.20;80.80;;;;;;;16.63;74.52;101599.09;4993276;28;20572;-81
2021/08/04 07:26:56;;;;;;;86.50;57.43;;;;;;;16.04;74.99;101518.09;4990708;28;20197;-79
2021/08/04 07:29:22;;;;;;;177.83;103.33;;;;;;;16.64;73.60;101608.91;4996489;28;20441;-77
2021/08/04 07:31:47;;;;;;;135.50;74.50;;;;;;;16.58;73.87;101602.50;4997293;28;20292;-78
2021/08/04 07:34:15;;;;;;;68.87;48.10;;;;;;;16.33;74.57;101569.13;4996805;28;20224;-79
2021/08/04 07:36:41;;;;;;;63.63;41.10;;;;;;;16.73;74.56;101615.72;4998894;28;20178;-79
2021/08/04 07:39:07;;;;;;;145.60;97.47;;;;;;;16.76;73.47;101596.34;5009804;28;20500;-79
2021/08/04 07:41:33;;;;;;;95.30;69.10;;;;;;;16.46;73.82;101540.09;5007112;28;20929;-79
2021/08/04 07:43:59;;;;;;;113.07;71.00;;;;;;;16.86;73.57;101603.94;4996451;28;20500;-79
2021/08/04 07:46:25;;;;;;;88.33;58.30;;;;;;;16.89;73.49;101601.66;4995508;28;20189;-79
2021/08/04 07:48:50;;;;;;;104.30;63.63;;;;;;;15.44;72.86;101359.97;4997515;28;20452;-79
2021/08/04 07:51:16;;;;;;;52.70;36.90;;;;;;;17.07;73.18;101602.75;4995122;28;20198;-79
2021/08/04 07:53:42;;;;;;;78.13;48.70;;;;;;;16.75;72.23;101561.28;4996864;28;20197;-79
2021/08/04 07:56:08;;;;;;;104.57;71.60;;;;;;;17.12;72.39;101602.88;5003092;28;20450;-81
2021/08/04 07:58:34;;;;;;;85.03;54.63;;;;;;;16.48;72.74;101501.94;4996963;28;20190;-79
2021/08/04 08:00:59;;;;;;;144.47;97.40;;;;;;;15.85;72.62;101391.09;4993983;28;20257;-82
2021/08/04 08:03:25;;;;;;;69.43;47.97;;;;;;;17.25;72.61;101588.38;4996539;28;20501;-80
2021/08/04 08:05:51;;;;;;;75.97;52.50;;;;;;;16.42;73.16;101438.69;4992649;28;20190;-79
2021/08/04 08:08:16;;;;;;;152.43;99.07;;;;;;;16.67;72.67;101484.69;4993967;28;20463;-82
2021/08/04 08:10:43;;;;;;;111.53;65.17;;;;;;;17.44;72.04;101589.19;4997081;28;20205;-81
2021/08/04 08:13:09;;;;;;;84.93;54.87;;;;;;;16.64;71.13;101449.94;4996013;28;20186;-80
2021/08/04 08:15:35;;;;;;;95.23;63.83;;;;;;;16.63;70.96;101453.66;4994993;28;20437;-81
2021/08/04 08:18:10;;;;;;;49.03;32.87;;;;;;;17.56;71.32;101590.94;5002408;28;20961;-80
2021/08/04 08:20:37;;;;;;;64.63;43.37;;;;;;;17.05;70.68;101507.25;5012560;28;20209;-80
2021/08/04 08:23:04;;;;;;;76.63;54.33;;;;;;;17.15;70.61;101515.69;4996693;28;20801;-80
2021/08/04 08:25:30;;;;;;;107.70;70.70;;;;;;;17.73;71.27;101587.59;5009575;28;20432;-80
2021/08/04 08:27:59;;;;;;;97.60;64.40;;;;;;;17.56;68.47;101571.09;5001298;28;20475;-79
2021/08/04 08:30:26;;;;;;;75.60;53.10;;;;;;;17.35;69.14;101501.91;5010068;28;20869;-79
2021/08/04 08:32:54;;;;;;;21.23;16.43;;;;;;;17.98;70.28;101582.91;5007615;28;20531;-79
2021/08/04 08:35:21;;;;;;;40.20;28.90;;;;;;;17.99;68.90;101581.88;4994280;28;20434;-79
2021/08/04 08:37:48;;;;;;;75.53;48.90;;;;;;;18.04;67.85;101579.25;4994008;28;20437;-79
2021/08/04 08:40:15;;;;;;;19.17;13.40;;;;;;;18.06;67.34;101579.88;5005119;28;20446;-79
2021/08/04 08:42:42;;;;;;;35.13;23.57;;;;;;;18.14;67.91;101581.44;4992599;28;20469;-79
2021/08/04 08:45:09;;;;;;;53.20;35.57;;;;;;;18.24;65.74;101578.16;5005261;28;20448;-79
2021/08/04 08:47:35;;;;;;;68.60;48.30;;;;;;;17.79;65.90;101505.31;4991659;28;20503;-79
2021/08/04 08:50:06;;;;;;;13.90;11.23;;;;;;;18.37;66.51;101577.13;4992459;28;20465;-79
2021/08/04 08:52:32;;;;;;;35.23;28.33;;;;;;;17.80;65.87;101485.25;4989619;28;20654;-79
2021/08/04 08:55:01;;;;;;;62.63;43.80;;;;;;;18.52;66.24;101582.94;4992739;28;20499;-79
2021/08/04 08:57:27;;;;;;;9.67;8.30;;;;;;;18.47;65.35;101585.53;4994020;28;20220;-79
2021/08/04 08:59:57;;;;;;;30.80;22.27;;;;;;;18.56;66.59;101578.69;4989238;28;20448;-79
2021/08/04 09:02:22;;;;;;;54.47;37.57;;;;;;;17.61;66.16;101420.16;4993067;28;20469;-79
2021/08/04 09:05:12;;;;;;;22.17;15.30;;;;;;;18.05;64.89;101504.06;4991649;28;20433;-79
2021/08/04 09:07:43;;;;;;;16.33;12.97;;;;;;;18.67;65.07;101575.16;4991486;28;20289;-79
2021/08/04 09:10:33;;;;;;;34.37;23.13;;;;;;;18.43;64.39;101530.84;4994645;28;20824;-81
2021/08/04 09:13:04;;;;;;;26.87;17.60;;;;;;;18.63;64.50;101578.56;4990822;28;20528;-78
2021/08/04 09:15:38;;;;;;;23.17;16.50;;;;;;;18.60;63.62;101571.75;4990681;28;20439;-79
2021/08/04 09:18:12;;;;;;;30.63;19.47;;;;;;;18.33;63.02;101516.19;4989575;28;20441;-79
2021/08/04 09:20:44;;;;;;;8.70;7.20;;;;;;;18.66;63.28;101576.25;4987992;28;20477;-78
2021/08/04 09:23:15;;;;;;;7.47;6.23;;;;;;;18.00;62.90;101455.94;4985797;28;20960;-78
2021/08/04 09:26:03;;;;;;;6.70;6.07;;;;;;;18.32;63.06;101479.25;4990809;28;20461;-79
2021/08/04 09:28:30;;;;;;;5.73;5.17;;;;;;;18.87;60.83;101574.88;4991264;28;20497;-81
2021/08/04 09:31:03;;;;;;;5.57;4.90;;;;;;;18.77;60.67;101560.19;4990286;28;20459;-79
2021/08/04 09:33:38;;;;;;;11.57;10.20;;;;;;;18.60;62.48;101520.13;4988491;28;20430;-78
2021/08/04 09:36:04;;;;;;;7.90;5.87;;;;;;;18.94;60.54;101569.28;4988947;28;20436;-79
2021/08/04 09:38:30;;;;;;;5.23;4.87;;;;;;;18.31;61.59;101440.38;4992549;28;20518;-79
2021/08/04 09:41:18;;;;;;;4.87;4.20;;;;;;;18.63;62.11;101476.19;4987822;28;20471;-79
2021/08/04 09:44:07;;;;;;;12.40;9.97;;;;;;;19.14;59.20;101561.59;4990740;28;20185;-78
2021/08/04 09:46:33;;;;;;;4.13;3.90;;;;;;;19.16;59.49;101550.50;5003933;28;20438;-79
2021/08/04 09:49:25;;;;;;;1.10;1.00;;;;;;;18.99;59.84;101550.38;4994078;28;20437;-79
2021/08/04 09:52:06;;;;;;;3.43;3.13;;;;;;;19.24;61.09;101554.72;4995579;28;20461;-79
2021/08/04 09:54:40;;;;;;;4.90;3.47;;;;;;;18.93;55.05;101505.13;4987376;28;20434;-79
2021/08/04 09:57:09;;;;;;;1.27;1.20;;;;;;;18.27;56.17;101391.16;4986117;28;20519;-78
2021/08/04 09:59:35;;;;;;;3.07;2.87;;;;;;;18.75;58.18;101451.75;4986551;28;20985;-79
2021/08/04 10:02:02;;;;;;;3.73;3.40;;;;;;;18.86;57.65;101497.13;4996730;28;20492;-79
2021/08/04 10:04:28;;;;;;;4.57;4.17;;;;;;;19.43;59.01;101540.72;4990234;28;20296;-79
2021/08/04 10:07:11;;;;;;;1.90;1.80;;;;;;;19.36;59.20;101521.00;4990185;28;20966;-78
2021/08/04 10:09:36;;;;;;;6.87;6.17;;;;;;;19.19;58.05;101496.44;4988786;28;20182;-79
2021/08/04 10:12:04;;;;;;;0.80;0.80;;;;;;;19.56;59.64;101542.38;4988564;28;20505;-79
2021/08/04 10:14:30;;;;;;;0.73;0.70;;;;;;;19.46;59.43;101539.41;4987710;28;20253;-78
2021/08/04 10:16:56;;;;;;;0.80;0.80;;;;;;;19.40;59.67;101510.47;4987912;28;20448;-79
2021/08/04 10:19:24;;;;;;;2.03;1.10;;;;;;;19.23;58.95;101449.75;5004972;28;20429;-78
2021/08/04 10:21:51;;;;;;;1.30;0.90;;;;;;;19.31;57.64;101441.19;4997518;28;20461;-78
2021/08/04 10:24:18;;;;;;;1.13;0.70;;;;;;;19.81;56.95;101479.44;5000214;28;20489;-78
2021/08/04 10:26:44;;;;;;;0.83;0.83;;;;;;;19.44;56.70;101438.19;4992842;28;20445;-79
2021/08/04 10:29:10;;;;;;;0.70;0.70;;;;;;;19.71;57.96;101476.53;4987371;28;20598;-78
2021/08/04 10:31:39;;;;;;;1.60;1.00;;;;;;;19.90;57.91;101538.94;4998689;28;20201;-79
2021/08/04 10:34:07;;;;;;;1.00;0.80;;;;;;;19.66;58.32;101483.78;4989685;28;20535;-78
2021/08/04 10:36:38;;;;;;;0.70;0.70;;;;;;;20.14;57.79;101528.75;4987799;28;20489;-79
2021/08/04 10:39:09;;;;;;;0.97;0.80;;;;;;;19.56;57.01;101419.09;4985453;28;20444;-78
2021/08/04 10:41:36;;;;;;;1.23;1.00;;;;;;;19.72;57.35;101455.59;4986724;28;20476;-79
2021/08/04 10:44:06;;;;;;;0.83;0.83;;;;;;;19.78;58.23;101511.78;4987261;28;20430;-79
2021/08/04 10:46:31;;;;;;;1.20;1.10;;;;;;;20.03;58.19;101538.66;4988563;28;20440;-79
2021/08/04 10:49:03;;;;;;;0.80;0.80;;;;;;;19.56;58.50;101487.94;4984238;28;20433;-79
2021/08/04 10:51:30;;;;;;;0.70;0.70;;;;;;;19.83;59.01;101537.19;5002130;28;20202;-79
2021/08/04 10:54:02;;;;;;;0.83;0.80;;;;;;;19.57;59.61;101541.28;4994881;28;20536;-79
2021/08/04 10:56:39;;;;;;;1.53;0.80;;;;;;;19.61;60.30;101536.19;4998601;28;20444;-78
2021/08/04 10:59:11;;;;;;;0.90;0.90;;;;;;;19.54;59.77;101532.78;4996505;28;20436;-78
2021/08/04 11:01:38;;;;;;;1.13;1.00;;;;;;;19.14;60.59;101504.50;4999129;28;20511;-79
2021/08/04 11:04:13;;;;;;;1.03;0.97;;;;;;;18.81;61.61;101420.91;5002962;28;20973;-78
2021/08/04 11:07:16;;;;;;;0.80;0.80;;;;;;;19.73;60.37;101536.16;5003898;28;20853;-79
2021/08/04 11:09:56;;;;;;;0.80;0.77;;;;;;;19.84;61.32;101494.47;5018517;28;20443;-78
2021/08/04 11:12:43;;;;;;;1.47;0.70;;;;;;;20.08;59.74;101531.41;5002919;28;20433;-78
2021/08/04 11:15:18;;;;;;;1.13;0.80;;;;;;;19.60;60.26;101466.50;4994536;28;20432;-78
2021/08/04 11:18:09;;;;;;;0.80;0.80;;;;;;;19.82;60.45;101523.84;4992113;28;20966;-78
2021/08/04 11:20:40;;;;;;;1.40;0.90;;;;;;;19.68;59.14;101487.09;5002455;28;20489;-80
2021/08/04 11:23:09;;;;;;;1.20;0.90;;;;;;;19.69;59.72;101488.75;4997996;28;20441;-78
2021/08/04 11:25:41;;;;;;;0.70;0.70;;;;;;;20.07;60.25;101513.38;4994430;28;20443;-78
2021/08/04 11:28:16;;;;;;;1.87;0.90;;;;;;;20.41;59.23;101518.84;5010624;28;20464;-78
2021/08/04 11:30:42;;;;;;;0.80;0.80;;;;;;;20.23;60.66;101513.66;4984791;28;20461;-78
2021/08/04 11:33:32;;;;;;;0.80;0.80;;;;;;;19.56;60.53;101440.88;4989487;28;20474;-78
2021/08/04 11:36:04;;;;;;;0.70;0.70;;;;;;;19.91;59.74;101451.59;4987464;28;20185;-78
2021/08/04 11:38:49;;;;;;;0.80;0.80;;;;;;;20.28;59.78;101502.84;5011375;28;20441;-78